createdAt,value
2019-05-19T00:02:03.182Z,61.45
2019-05-19T00:04:31.522Z,57.08
2019-05-19T00:06:59.798Z,59.63
2019-05-19T00:09:28.181Z,65.22
2019-05-19T00:11:56.429Z,57.55
2019-05-19T00:14:24.700Z,61.70
2019-05-19T00:16:53.001Z,65.42
2019-05-19T00:19:26.641Z,62.43
2019-05-19T00:21:51.871Z,64.03
2019-05-19T00:24:20.161Z,63.63
2019-05-19T00:26:48.605Z,62.95
2019-05-19T00:29:16.967Z,67.20
2019-05-19T00:31:45.238Z,62.83
2019-05-19T00:34:13.530Z,65.05
2019-05-19T00:36:41.788Z,67.30
2019-05-19T00:39:10.168Z,61.30
2019-05-19T00:41:38.536Z,63.78
2019-05-19T00:44:06.789Z,57.40
2019-05-19T00:46:35.095Z,60.28
2019-05-19T00:49:03.379Z,61.90
2019-05-19T00:51:31.622Z,58.25
2019-05-19T00:53:59.893Z,58.90
2019-05-19T00:56:28.155Z,56.33
2019-05-19T00:58:57.359Z,55.45
2019-05-19T01:01:25.668Z,61.08
2019-05-19T01:03:54.548Z,59.30
2019-05-19T01:06:22.909Z,57.60
2019-05-19T01:08:51.180Z,57.93
2019-05-19T01:11:19.428Z,54.58
2019-05-19T01:13:47.732Z,57.48
2019-05-19T01:16:15.989Z,52.20
2019-05-19T01:18:44.258Z,54.03
2019-05-19T01:21:12.847Z,55.05
2019-05-19T01:23:41.096Z,53.92
2019-05-19T01:26:09.360Z,52.13
2019-05-19T01:28:37.606Z,56.95
2019-05-19T01:31:05.960Z,52.65
2019-05-19T01:33:34.593Z,53.48
2019-05-19T01:36:02.863Z,49.38
2019-05-19T01:38:31.107Z,50.17
2019-05-19T01:40:59.379Z,51.83
2019-05-19T01:43:27.639Z,47.73
2019-05-19T01:45:55.908Z,48.38
2019-05-19T01:48:24.251Z,47.33
2019-05-19T01:50:52.509Z,48.60
2019-05-19T01:53:20.765Z,44.08
2019-05-19T01:55:49.035Z,43.30
2019-05-19T01:58:17.293Z,41.18
2019-05-19T02:00:46.111Z,46.95
2019-05-19T02:03:14.342Z,43.52
2019-05-19T02:05:43.572Z,43.25
2019-05-19T02:08:11.816Z,42.03
2019-05-19T02:10:40.248Z,43.28
2019-05-19T02:13:08.514Z,39.25
2019-05-19T02:15:36.868Z,40.05
2019-05-19T02:18:05.178Z,40.40
2019-05-19T02:20:34.001Z,37.98
2019-05-19T02:23:02.722Z,38.10
2019-05-19T02:25:31.678Z,37.93
2019-05-19T02:27:59.917Z,37.13
2019-05-19T02:30:30.685Z,36.75
2019-05-19T02:32:59.107Z,35.63
2019-05-19T02:35:28.174Z,35.23
2019-05-19T02:37:56.427Z,37.42
2019-05-19T02:40:24.709Z,33.73
2019-05-19T02:42:53.050Z,35.40
2019-05-19T02:45:21.532Z,33.63
2019-05-19T02:47:49.798Z,34.67
2019-05-19T02:50:19.505Z,31.50
2019-05-19T02:52:47.774Z,32.28
2019-05-19T02:55:16.301Z,32.48
2019-05-19T02:57:44.572Z,31.17
2019-05-19T03:00:13.086Z,33.73
2019-05-19T03:02:41.449Z,31.25
2019-05-19T03:05:09.875Z,30.60
2019-05-19T03:07:38.270Z,31.55
2019-05-19T03:10:06.609Z,30.92
2019-05-19T03:12:34.893Z,30.27
2019-05-19T03:15:03.430Z,30.20
2019-05-19T03:17:31.696Z,27.67
2019-05-19T03:20:00.139Z,28.55
2019-05-19T03:22:28.593Z,28.87
2019-05-19T03:24:56.899Z,27.13
2019-05-19T03:27:25.195Z,27.75
2019-05-19T03:29:55.100Z,29.52
2019-05-19T03:32:25.262Z,28.27
2019-05-19T03:34:53.548Z,28.45
2019-05-19T03:37:21.909Z,28.12
2019-05-19T03:39:50.181Z,30.05
2019-05-19T03:42:19.253Z,28.47
2019-05-19T03:44:47.508Z,28.35
2019-05-19T03:47:15.785Z,28.40
2019-05-19T03:49:44.186Z,30.15
2019-05-19T03:52:12.533Z,28.30
2019-05-19T03:54:40.808Z,26.75
2019-05-19T03:57:09.089Z,27.50
2019-05-19T03:59:37.377Z,27.42
2019-05-19T04:02:05.951Z,26.20
2019-05-19T04:04:34.365Z,27.42
2019-05-19T04:07:02.630Z,27.42
2019-05-19T04:09:30.889Z,28.35
2019-05-19T04:11:59.164Z,26.55
2019-05-19T04:14:27.513Z,27.32
2019-05-19T04:16:56.725Z,25.77
2019-05-19T04:19:25.125Z,26.93
2019-05-19T04:21:53.375Z,25.10
2019-05-19T04:24:21.639Z,24.87
2019-05-19T04:26:50.143Z,24.67
2019-05-19T04:29:18.400Z,26.25
2019-05-19T04:31:46.664Z,25.27
2019-05-19T04:34:14.895Z,24.15
2019-05-19T04:36:43.166Z,25.55
2019-05-19T04:39:11.438Z,24.02
2019-05-19T04:41:40.429Z,23.77
2019-05-19T04:44:08.806Z,25.48
2019-05-19T04:46:37.248Z,25.17
2019-05-19T04:49:05.500Z,24.25
2019-05-19T04:51:33.882Z,25.55
2019-05-19T04:54:02.135Z,23.22
2019-05-19T04:56:30.359Z,23.55
2019-05-19T04:58:58.660Z,22.50
2019-05-19T05:01:26.911Z,23.65
2019-05-19T05:03:55.295Z,23.80
2019-05-19T05:06:23.882Z,22.45
2019-05-19T05:08:52.097Z,21.87
2019-05-19T05:11:20.343Z,23.87
2019-05-19T05:13:48.741Z,22.45
2019-05-19T05:16:17.162Z,22.13
2019-05-19T05:18:47.877Z,22.95
2019-05-19T05:21:15.615Z,21.82
2019-05-19T05:23:43.915Z,22.32
2019-05-19T05:26:12.150Z,20.82
2019-05-19T05:28:40.462Z,22.02
2019-05-19T05:31:08.806Z,20.37
2019-05-19T05:33:37.095Z,19.35
2019-05-19T05:36:05.399Z,21.10
2019-05-19T05:38:33.688Z,20.95
2019-05-19T05:41:01.926Z,21.68
2019-05-19T05:43:30.284Z,21.68
2019-05-19T05:45:58.511Z,21.40
2019-05-19T05:48:26.867Z,21.20
2019-05-19T05:50:55.188Z,22.37
2019-05-19T05:53:23.486Z,23.27
2019-05-19T05:55:51.715Z,22.40
2019-05-19T05:58:19.942Z,22.22
2019-05-19T06:00:48.176Z,23.80
2019-05-19T06:03:16.390Z,21.50
2019-05-19T06:05:44.628Z,23.15
2019-05-19T06:08:12.835Z,20.52
2019-05-19T06:10:41.066Z,20.32
2019-05-19T06:13:09.307Z,22.13
2019-05-19T06:15:37.557Z,23.32
2019-05-19T06:18:05.949Z,21.30
2019-05-19T06:20:34.202Z,21.75
2019-05-19T06:23:02.504Z,22.58
2019-05-19T06:25:30.843Z,29.63
2019-05-19T06:27:59.099Z,23.18
2019-05-19T06:30:27.378Z,27.17
2019-05-19T06:32:57.349Z,27.22
2019-05-19T06:35:25.642Z,22.80
2019-05-19T06:37:53.933Z,22.98
2019-05-19T06:40:22.171Z,22.75
2019-05-19T06:42:50.625Z,25.05
2019-05-19T06:45:19.133Z,23.00
2019-05-19T06:47:47.543Z,19.82
2019-05-19T06:50:15.809Z,21.10
2019-05-19T06:52:44.055Z,19.80
2019-05-19T06:55:12.390Z,22.87
2019-05-19T06:57:40.818Z,22.93
2019-05-19T07:00:09.111Z,17.98
2019-05-19T07:02:37.548Z,21.70
2019-05-19T07:05:06.451Z,22.07
2019-05-19T07:07:34.749Z,21.50
2019-05-19T07:10:03.968Z,25.23
2019-05-19T07:12:32.244Z,23.18
2019-05-19T07:15:00.458Z,22.60
2019-05-19T07:17:28.728Z,22.05
2019-05-19T07:19:57.059Z,21.23
2019-05-19T07:22:25.390Z,22.10
2019-05-19T07:24:53.767Z,21.10
2019-05-19T07:27:22.037Z,20.12
2019-05-19T07:29:50.366Z,19.62
2019-05-19T07:32:18.711Z,20.32
2019-05-19T07:34:47.128Z,17.80
2019-05-19T07:37:15.529Z,19.37
2019-05-19T07:39:43.808Z,21.60
2019-05-19T07:42:12.084Z,19.87
2019-05-19T07:44:40.403Z,18.45
2019-05-19T07:47:08.766Z,20.40
2019-05-19T07:49:37.057Z,17.55
2019-05-19T07:52:05.322Z,19.00
2019-05-19T07:54:33.686Z,19.95
2019-05-19T07:57:03.043Z,18.20
2019-05-19T07:59:31.457Z,19.40
2019-05-19T08:01:59.771Z,17.95
2019-05-19T08:04:28.056Z,17.25
2019-05-19T08:06:56.505Z,16.90
2019-05-19T08:09:24.851Z,18.32
2019-05-19T08:11:53.092Z,17.60
2019-05-19T08:14:21.452Z,17.20
2019-05-19T08:16:49.748Z,17.20
2019-05-19T08:19:17.972Z,15.45
2019-05-19T08:21:46.239Z,16.42
2019-05-19T08:24:14.518Z,15.03
2019-05-19T08:26:42.837Z,19.50
2019-05-19T08:29:11.219Z,17.67
2019-05-19T08:31:39.662Z,17.85
2019-05-19T08:34:08.158Z,17.82
2019-05-19T08:36:36.525Z,16.93
2019-05-19T08:39:06.147Z,18.67
2019-05-19T08:41:35.143Z,17.27
2019-05-19T08:44:04.268Z,17.45
2019-05-19T08:46:32.547Z,21.95
2019-05-19T08:49:00.813Z,15.93
2019-05-19T08:51:29.104Z,16.35
2019-05-19T08:53:57.453Z,17.40
2019-05-19T08:56:25.770Z,15.83
2019-05-19T08:58:54.232Z,16.93
2019-05-19T09:01:22.792Z,18.55
2019-05-19T09:03:51.095Z,19.42
2019-05-19T09:06:21.159Z,16.97
2019-05-19T09:08:49.483Z,15.68
2019-05-19T09:11:17.749Z,16.10
2019-05-19T09:13:46.019Z,17.23
2019-05-19T09:16:14.242Z,14.03
2019-05-19T09:18:42.601Z,15.88
2019-05-19T09:21:10.882Z,15.10
2019-05-19T09:23:39.246Z,17.60
2019-05-19T09:26:07.533Z,16.65
2019-05-19T09:28:35.891Z,18.23
2019-05-19T09:31:04.238Z,13.83
2019-05-19T09:33:32.537Z,16.07
2019-05-19T09:36:00.841Z,16.80
2019-05-19T09:38:29.110Z,15.60
2019-05-19T09:40:57.452Z,15.80
2019-05-19T09:43:25.719Z,16.57
2019-05-19T09:45:54.860Z,20.52
2019-05-19T09:48:23.253Z,17.23
2019-05-19T09:50:51.485Z,12.18
2019-05-19T09:53:19.749Z,18.17
2019-05-19T09:55:48.005Z,13.88
2019-05-19T09:58:19.870Z,15.93
2019-05-19T10:00:46.425Z,15.78
2019-05-19T10:03:14.737Z,13.15
2019-05-19T10:05:42.954Z,14.28
2019-05-19T10:08:11.170Z,14.68
2019-05-19T10:10:54.886Z,14.60
2019-05-19T10:13:23.135Z,13.50
2019-05-19T10:15:51.357Z,14.93
2019-05-19T10:18:19.675Z,13.75
2019-05-19T10:20:50.403Z,18.32
2019-05-19T10:23:17.846Z,16.27
2019-05-19T10:25:46.178Z,13.20
2019-05-19T10:28:14.486Z,15.58
2019-05-19T10:30:42.744Z,12.35
2019-05-19T10:33:11.000Z,14.55
2019-05-19T10:35:39.209Z,13.22
2019-05-19T10:38:07.456Z,14.83
2019-05-19T10:40:35.936Z,13.05
2019-05-19T10:43:05.006Z,14.07
2019-05-19T10:45:33.232Z,13.58
2019-05-19T10:48:01.716Z,13.50
2019-05-19T10:50:30.069Z,13.62
2019-05-19T10:52:58.355Z,13.53
2019-05-19T10:55:36.223Z,15.28
2019-05-19T10:57:56.744Z,13.03
2019-05-19T11:00:25.135Z,12.85
2019-05-19T11:02:53.333Z,12.35
2019-05-19T11:05:22.081Z,11.18
2019-05-19T11:07:50.354Z,10.95
2019-05-19T11:10:18.589Z,11.70
2019-05-19T11:12:47.071Z,12.73
2019-05-19T11:15:15.502Z,11.70
2019-05-19T11:17:43.906Z,12.23
2019-05-19T11:20:12.154Z,12.58
2019-05-19T11:22:40.430Z,11.18
2019-05-19T11:25:08.640Z,11.55
2019-05-19T11:27:37.265Z,11.48
2019-05-19T11:30:06.462Z,11.73
2019-05-19T11:32:35.730Z,12.78
2019-05-19T11:35:05.935Z,12.85
2019-05-19T11:37:34.300Z,12.35
2019-05-19T11:40:03.126Z,11.90
2019-05-19T11:42:31.450Z,12.45
2019-05-19T11:45:25.447Z,12.68
2019-05-19T11:47:53.735Z,11.97
2019-05-19T11:50:21.952Z,11.48
2019-05-19T11:52:50.277Z,12.65
2019-05-19T11:55:18.509Z,14.85
2019-05-19T11:57:46.754Z,12.60
2019-05-19T12:00:15.120Z,13.20
2019-05-19T12:02:43.337Z,12.23
2019-05-19T12:05:11.557Z,13.05
2019-05-19T12:07:40.570Z,12.53
2019-05-19T12:10:09.385Z,13.80
2019-05-19T12:12:37.637Z,12.37
2019-05-19T12:15:07.286Z,11.65
2019-05-19T12:17:35.663Z,12.43
2019-05-19T12:20:04.269Z,13.43
2019-05-19T12:22:32.505Z,13.60
2019-05-19T12:25:00.807Z,12.78
2019-05-19T12:27:29.192Z,14.55
2019-05-19T12:29:57.409Z,12.47
2019-05-19T12:32:25.819Z,13.62
2019-05-19T12:34:54.215Z,13.65
2019-05-19T12:37:22.591Z,11.65
2019-05-19T12:39:50.980Z,13.00
2019-05-19T12:42:19.207Z,16.70
2019-05-19T12:44:47.557Z,11.12
2019-05-19T12:47:15.914Z,10.88
2019-05-19T12:49:44.302Z,10.82
2019-05-19T12:52:12.700Z,11.08
2019-05-19T12:54:40.936Z,12.15
2019-05-19T12:57:09.196Z,13.10
2019-05-19T12:59:37.444Z,12.37
2019-05-19T13:02:05.747Z,13.13
2019-05-19T13:04:34.949Z,12.88
2019-05-19T13:07:03.240Z,11.88
2019-05-19T13:09:31.619Z,11.10
2019-05-19T13:11:59.887Z,11.65
2019-05-19T13:14:28.264Z,13.08
2019-05-19T13:16:56.553Z,15.55
2019-05-19T13:19:24.801Z,12.00
2019-05-19T13:21:53.093Z,13.10
2019-05-19T13:24:21.419Z,13.22
2019-05-19T13:26:56.591Z,16.57
2019-05-19T13:29:19.668Z,13.88
2019-05-19T13:31:47.909Z,12.28
2019-05-19T13:34:16.298Z,13.48
2019-05-19T13:36:44.575Z,13.22
2019-05-19T13:39:12.796Z,13.60
2019-05-19T13:41:41.019Z,12.58
2019-05-19T13:44:09.254Z,13.58
2019-05-19T13:46:37.791Z,14.43
2019-05-19T13:49:06.085Z,13.08
2019-05-19T13:51:34.715Z,13.95
2019-05-19T13:54:03.275Z,13.50
2019-05-19T13:56:31.506Z,12.82
2019-05-19T13:58:59.817Z,13.25
2019-05-19T14:01:29.098Z,15.03
2019-05-19T14:03:57.446Z,12.33
2019-05-19T14:06:25.779Z,13.70
2019-05-19T14:08:54.002Z,11.80
2019-05-19T14:11:22.246Z,12.37
2019-05-19T14:13:50.468Z,12.18
2019-05-19T14:16:18.690Z,13.32
2019-05-19T14:18:46.925Z,14.20
2019-05-19T14:21:15.140Z,27.37
2019-05-19T14:23:43.379Z,14.87
2019-05-19T14:26:12.701Z,14.70
2019-05-19T14:28:40.925Z,13.53
2019-05-19T14:31:09.224Z,12.80
2019-05-19T14:33:37.439Z,12.68
2019-05-19T14:36:06.557Z,14.00
2019-05-19T14:38:34.771Z,13.60
2019-05-19T14:41:03.097Z,16.10
2019-05-19T14:43:33.024Z,11.43
2019-05-19T14:46:01.262Z,14.68
2019-05-19T14:48:29.490Z,12.95
2019-05-19T14:50:57.767Z,13.22
2019-05-19T14:53:26.153Z,14.23
2019-05-19T14:55:54.844Z,14.78
2019-05-19T14:58:23.472Z,12.10
2019-05-19T15:00:51.859Z,12.33
2019-05-19T15:03:20.076Z,11.20
2019-05-19T15:05:48.342Z,12.95
2019-05-19T15:08:16.874Z,13.72
2019-05-19T15:10:45.204Z,15.28
2019-05-19T15:13:13.613Z,11.60
2019-05-19T15:15:41.828Z,12.50
2019-05-19T15:18:10.065Z,13.85
2019-05-19T15:20:38.313Z,13.70
2019-05-19T15:23:06.563Z,11.57
2019-05-19T15:25:34.835Z,13.88
2019-05-19T15:28:05.399Z,13.43
2019-05-19T15:30:33.210Z,12.05
2019-05-19T15:33:01.451Z,12.47
2019-05-19T15:35:29.678Z,13.90
2019-05-19T15:37:58.289Z,15.08
2019-05-19T15:40:26.513Z,14.35
2019-05-19T15:42:54.730Z,12.88
2019-05-19T15:45:22.992Z,13.25
2019-05-19T15:47:51.291Z,12.70
2019-05-19T15:50:19.507Z,12.65
2019-05-19T15:52:47.739Z,11.80
2019-05-19T15:55:15.970Z,12.10
2019-05-19T15:57:44.194Z,14.00
2019-05-19T16:00:12.459Z,12.20
2019-05-19T16:02:40.842Z,13.62
2019-05-19T16:05:10.068Z,12.93
2019-05-19T16:07:38.303Z,12.73
2019-05-19T16:10:08.436Z,12.98
2019-05-19T16:12:36.885Z,12.43
2019-05-19T16:15:06.306Z,10.95
2019-05-19T16:17:34.530Z,10.55
2019-05-19T16:20:02.942Z,12.03
2019-05-19T16:22:31.208Z,11.33
2019-05-19T16:24:59.446Z,11.78
2019-05-19T16:27:27.746Z,11.97
2019-05-19T16:29:56.019Z,12.30
2019-05-19T16:32:24.334Z,12.40
2019-05-19T16:34:52.714Z,12.30
2019-05-19T16:37:20.998Z,12.05
2019-05-19T16:39:49.373Z,12.45
2019-05-19T16:42:17.643Z,11.68
2019-05-19T16:44:46.013Z,12.33
2019-05-19T16:47:14.359Z,10.58
2019-05-19T16:49:42.955Z,12.40
2019-05-19T16:52:11.205Z,12.28
2019-05-19T16:54:42.741Z,11.90
2019-05-19T16:57:11.409Z,11.00
2019-05-19T16:59:39.783Z,11.65
2019-05-19T17:02:08.146Z,12.13
2019-05-19T17:04:36.363Z,11.25
2019-05-19T17:07:05.351Z,12.28
2019-05-19T17:09:33.566Z,11.05
2019-05-19T17:12:01.803Z,12.03
2019-05-19T17:14:30.152Z,10.85
2019-05-19T17:16:58.383Z,12.05
2019-05-19T17:19:26.617Z,13.03
2019-05-19T17:21:54.866Z,11.83
2019-05-19T17:24:23.157Z,14.23
2019-05-19T17:26:51.390Z,14.43
2019-05-19T17:29:19.676Z,14.15
2019-05-19T17:31:47.937Z,11.95
2019-05-19T17:34:16.235Z,12.55
2019-05-19T17:36:45.848Z,11.20
2019-05-19T17:39:14.273Z,12.40
2019-05-19T17:41:42.586Z,11.50
2019-05-19T17:44:10.831Z,12.53
2019-05-19T17:46:39.574Z,12.88
2019-05-19T17:49:07.819Z,12.35
2019-05-19T17:51:36.045Z,12.50
2019-05-19T17:54:04.607Z,14.07
2019-05-19T17:56:32.924Z,14.73
2019-05-19T17:59:14.552Z,13.30
2019-05-19T18:01:31.438Z,15.23
2019-05-19T18:03:59.717Z,12.93
2019-05-19T18:06:29.922Z,14.95
2019-05-19T18:08:58.190Z,14.28
2019-05-19T18:11:26.526Z,15.60
2019-05-19T18:13:54.810Z,15.70
2019-05-19T18:16:23.180Z,16.50
2019-05-19T18:18:51.463Z,14.85
2019-05-19T18:21:19.723Z,16.05
2019-05-19T18:23:48.079Z,15.13
2019-05-19T18:26:16.360Z,15.35
2019-05-19T18:28:44.619Z,16.52
2019-05-19T18:31:12.888Z,16.75
2019-05-19T18:33:41.170Z,15.93
2019-05-19T18:36:09.507Z,17.05
2019-05-19T18:38:37.831Z,16.27
2019-05-19T18:41:06.142Z,17.62
2019-05-19T18:43:34.531Z,15.28
2019-05-19T18:46:02.799Z,17.10
2019-05-19T18:48:31.083Z,16.75
2019-05-19T18:50:59.524Z,17.00
2019-05-19T18:53:28.425Z,16.97
2019-05-19T18:55:56.845Z,16.95
2019-05-19T18:58:25.107Z,19.67
2019-05-19T19:00:53.405Z,35.90
2019-05-19T19:03:21.665Z,18.98
2019-05-19T19:05:49.911Z,18.37
2019-05-19T19:08:18.143Z,19.40
2019-05-19T19:10:46.748Z,20.27
2019-05-19T19:13:14.971Z,18.50
2019-05-19T19:15:43.498Z,18.85
2019-05-19T19:18:11.838Z,19.27
2019-05-19T19:20:40.124Z,19.55
2019-05-19T19:23:08.429Z,18.02
2019-05-19T19:25:36.759Z,17.92
2019-05-19T19:28:05.007Z,19.32
2019-05-19T19:30:33.278Z,19.55
2019-05-19T19:33:01.509Z,19.42
2019-05-19T19:35:38.632Z,17.98
2019-05-19T19:37:59.935Z,19.50
2019-05-19T19:40:29.889Z,42.43
2019-05-19T19:43:01.687Z,30.45
2019-05-19T19:45:30.120Z,43.05
2019-05-19T19:47:58.343Z,31.15
2019-05-19T19:50:26.589Z,29.12
2019-05-19T19:52:54.880Z,24.35
2019-05-19T19:55:23.222Z,22.75
2019-05-19T19:57:51.559Z,26.35
2019-05-19T20:00:37.244Z,24.77
2019-05-19T20:03:06.552Z,24.50
2019-05-19T20:05:34.942Z,21.87
2019-05-19T20:08:03.200Z,22.98
2019-05-19T20:10:31.837Z,22.60
2019-05-19T20:13:00.054Z,23.95
2019-05-19T20:15:28.374Z,22.75
2019-05-19T20:17:56.660Z,22.77
2019-05-19T20:20:24.988Z,25.20
2019-05-19T20:22:53.267Z,24.95
2019-05-19T20:25:21.494Z,24.12
2019-05-19T20:27:49.731Z,25.62
2019-05-19T20:30:33.814Z,23.38
2019-05-19T20:32:48.188Z,25.62
2019-05-19T20:35:16.498Z,25.70
2019-05-19T20:37:45.048Z,24.85
2019-05-19T20:40:13.986Z,24.45
2019-05-19T20:42:42.247Z,26.85
2019-05-19T20:45:10.851Z,26.35
2019-05-19T20:47:39.156Z,27.85
2019-05-19T20:50:08.067Z,28.80
2019-05-19T20:52:36.338Z,27.30
2019-05-19T20:55:06.020Z,27.13
2019-05-19T20:57:34.355Z,27.80
2019-05-19T21:00:02.595Z,27.70
2019-05-19T21:02:30.915Z,27.55
2019-05-19T21:04:59.224Z,27.85
2019-05-19T21:07:27.496Z,27.75
2019-05-19T21:09:56.803Z,30.52
2019-05-19T21:12:25.090Z,27.25
2019-05-19T21:14:53.308Z,28.25
2019-05-19T21:17:21.538Z,28.17
2019-05-19T21:19:49.756Z,31.07
2019-05-19T21:22:18.402Z,32.25
2019-05-19T21:24:46.615Z,30.95
2019-05-19T21:27:15.064Z,32.17
2019-05-19T21:29:43.323Z,32.50
2019-05-19T21:32:11.547Z,32.65
2019-05-19T21:34:39.784Z,32.50
2019-05-19T21:37:08.446Z,30.75
2019-05-19T21:39:36.728Z,32.50
2019-05-19T21:42:04.955Z,31.77
2019-05-19T21:44:33.187Z,31.68
2019-05-19T21:47:01.489Z,33.63
2019-05-19T21:49:29.697Z,32.35
2019-05-19T21:51:57.954Z,32.85
2019-05-19T21:54:26.959Z,33.42
2019-05-19T21:56:55.200Z,31.50
2019-05-19T21:59:23.676Z,33.88
2019-05-19T22:01:51.927Z,34.08
2019-05-19T22:04:20.231Z,35.73
2019-05-19T22:06:52.952Z,37.42
2019-05-19T22:09:21.407Z,35.80
2019-05-19T22:11:49.895Z,34.78
2019-05-19T22:14:18.146Z,35.92
2019-05-19T22:16:46.386Z,35.80
2019-05-19T22:19:15.956Z,34.98
2019-05-19T22:21:44.918Z,35.35
2019-05-19T22:24:13.191Z,36.08
2019-05-19T22:26:41.435Z,37.55
2019-05-19T22:29:09.663Z,38.58
2019-05-19T22:31:37.947Z,37.50
2019-05-19T22:34:06.159Z,34.98
2019-05-19T22:36:34.391Z,39.45
2019-05-19T22:39:02.611Z,39.58
2019-05-19T22:41:30.931Z,41.50
2019-05-19T22:43:59.209Z,40.58
2019-05-19T22:46:28.023Z,42.38
2019-05-19T22:48:56.240Z,42.08
2019-05-19T22:51:24.538Z,43.15
2019-05-19T22:53:53.670Z,42.90
2019-05-19T22:56:21.913Z,43.52
2019-05-19T22:58:50.115Z,44.88
2019-05-19T23:01:18.432Z,44.13
2019-05-19T23:03:46.658Z,44.70
2019-05-19T23:06:14.898Z,42.83
2019-05-19T23:08:43.147Z,44.27
2019-05-19T23:11:11.356Z,45.12
2019-05-19T23:13:39.582Z,43.70
2019-05-19T23:16:07.802Z,42.98
2019-05-19T23:18:36.070Z,41.35
2019-05-19T23:21:04.340Z,42.53
2019-05-19T23:23:32.572Z,41.50
2019-05-19T23:26:00.833Z,39.42
2019-05-19T23:28:29.056Z,42.73
2019-05-19T23:30:57.347Z,40.83
2019-05-19T23:33:25.585Z,40.38
2019-05-19T23:35:53.807Z,40.28
2019-05-19T23:38:22.039Z,38.75
2019-05-19T23:40:50.349Z,37.80
2019-05-19T23:43:18.590Z,43.35
2019-05-19T23:45:46.854Z,43.45
2019-05-19T23:48:15.113Z,40.25
2019-05-19T23:50:43.503Z,38.50
2019-05-19T23:53:11.886Z,37.65
2019-05-19T23:55:40.115Z,40.17
2019-05-19T23:58:08.461Z,33.65
